createdAt,value
2023-04-26T00:00:10.076Z,0.00
2023-04-26T00:01:10.053Z,0.00
2023-04-26T00:02:10.064Z,0.00
2023-04-26T00:03:10.368Z,0.00
2023-04-26T00:04:10.357Z,0.00
2023-04-26T00:05:10.298Z,0.00
2023-04-26T00:06:10.048Z,0.00
2023-04-26T00:07:10.028Z,0.00
2023-04-26T00:08:09.971Z,0.00
2023-04-26T00:09:09.972Z,0.00
2023-04-26T00:10:09.949Z,0.00
2023-04-26T00:11:09.960Z,0.00
2023-04-26T00:12:09.923Z,0.00
2023-04-26T00:13:09.964Z,0.00
2023-04-26T00:14:09.905Z,0.00
2023-04-26T00:15:09.910Z,0.00
2023-04-26T00:16:09.930Z,0.00
2023-04-26T00:17:09.876Z,0.00
2023-04-26T00:18:09.903Z,0.00
2023-04-26T00:19:09.855Z,0.00
2023-04-26T00:20:09.866Z,0.00
2023-04-26T00:21:09.836Z,0.00
2023-04-26T00:22:09.813Z,0.00
2023-04-26T00:23:10.825Z,0.00
2023-04-26T00:24:09.794Z,0.00
2023-04-26T00:25:09.818Z,0.00
2023-04-26T00:26:09.774Z,0.00
2023-04-26T00:27:09.792Z,0.00
2023-04-26T00:28:11.789Z,0.00
2023-04-26T00:29:09.754Z,0.00
2023-04-26T00:30:09.736Z,0.00
2023-04-26T00:31:09.787Z,0.00
2023-04-26T00:32:09.760Z,0.00
2023-04-26T00:33:09.836Z,0.00
2023-04-26T00:34:09.693Z,0.00
2023-04-26T00:35:09.687Z,0.00
2023-04-26T00:36:09.672Z,0.00
2023-04-26T00:37:09.661Z,0.00
2023-04-26T00:38:09.678Z,0.00
2023-04-26T00:39:09.676Z,0.00
2023-04-26T00:40:09.618Z,0.00
2023-04-26T00:41:09.625Z,0.00
2023-04-26T00:42:09.595Z,0.00
2023-04-26T00:43:09.590Z,0.00
2023-04-26T00:44:09.611Z,0.00
2023-04-26T00:45:09.567Z,0.00
2023-04-26T00:46:09.619Z,0.00
2023-04-26T00:47:09.577Z,0.00
2023-04-26T00:48:09.573Z,0.00
2023-04-26T00:49:09.555Z,0.00
2023-04-26T00:50:09.523Z,0.00
2023-04-26T00:51:09.535Z,0.00
2023-04-26T00:52:09.487Z,0.00
2023-04-26T00:53:09.489Z,0.00
2023-04-26T00:54:09.474Z,0.00
2023-04-26T00:55:09.497Z,0.00
2023-04-26T00:56:09.550Z,0.00
2023-04-26T00:57:09.459Z,0.00
2023-04-26T00:58:09.428Z,0.00
2023-04-26T00:59:09.422Z,0.00
2023-04-26T01:00:09.418Z,0.00
2023-04-26T01:01:09.455Z,0.00
2023-04-26T01:02:09.457Z,0.00
2023-04-26T01:03:09.501Z,0.00
2023-04-26T01:04:09.487Z,0.00
2023-04-26T01:05:09.403Z,0.00
2023-04-26T01:06:09.345Z,0.00
2023-04-26T01:07:09.373Z,0.00
2023-04-26T01:08:09.328Z,0.00
2023-04-26T01:09:09.309Z,0.00
2023-04-26T01:10:09.295Z,0.00
2023-04-26T01:11:09.310Z,0.00
2023-04-26T01:12:09.295Z,0.00
2023-04-26T01:13:09.285Z,0.00
2023-04-26T01:14:09.252Z,0.00
2023-04-26T01:15:09.242Z,0.00
2023-04-26T01:16:09.267Z,0.00
2023-04-26T01:17:09.356Z,0.00
2023-04-26T01:18:09.210Z,0.00
2023-04-26T01:19:09.229Z,0.00
2023-04-26T01:20:09.211Z,0.00
2023-04-26T01:21:09.179Z,0.00
2023-04-26T01:22:09.150Z,0.00
2023-04-26T01:23:09.166Z,0.00
2023-04-26T01:24:09.150Z,0.00
2023-04-26T01:25:09.162Z,0.00
2023-04-26T01:26:09.136Z,0.00
2023-04-26T01:27:09.099Z,0.00
2023-04-26T01:28:09.087Z,0.00
2023-04-26T01:29:09.098Z,0.00
2023-04-26T01:30:10.057Z,0.00
2023-04-26T01:31:09.089Z,0.00
2023-04-26T01:32:09.054Z,0.00
2023-04-26T01:33:09.128Z,0.00
2023-04-26T01:34:09.032Z,0.00
2023-04-26T01:35:10.518Z,0.00
2023-04-26T01:36:09.969Z,0.00
2023-04-26T01:37:09.010Z,0.00
2023-04-26T01:38:08.998Z,0.00
2023-04-26T01:39:17.049Z,0.00
2023-04-26T01:40:08.972Z,0.00
2023-04-26T01:41:08.965Z,0.00
2023-04-26T01:42:08.957Z,0.00
2023-04-26T01:43:08.934Z,0.00
2023-04-26T01:44:08.929Z,0.00
2023-04-26T01:45:08.968Z,0.00
2023-04-26T01:46:08.932Z,0.00
2023-04-26T01:47:08.895Z,0.00
2023-04-26T01:48:09.006Z,0.00
2023-04-26T01:49:09.054Z,0.00
2023-04-26T01:50:08.863Z,0.00
2023-04-26T01:51:08.862Z,0.00
2023-04-26T01:52:08.824Z,0.00
2023-04-26T01:53:08.825Z,0.00
2023-04-26T01:54:08.811Z,0.00
2023-04-26T01:55:08.847Z,0.00
2023-04-26T01:56:08.811Z,0.00
2023-04-26T01:57:08.795Z,0.00
2023-04-26T01:58:08.782Z,0.00
2023-04-26T01:59:08.753Z,0.00
2023-04-26T02:00:09.091Z,0.00
2023-04-26T02:01:08.796Z,0.00
2023-04-26T02:02:08.762Z,0.00
2023-04-26T02:03:08.765Z,0.00
2023-04-26T02:04:08.710Z,0.00
2023-04-26T02:05:08.769Z,0.00
2023-04-26T02:06:08.680Z,0.00
2023-04-26T02:07:08.699Z,0.00
2023-04-26T02:08:08.653Z,0.00
2023-04-26T02:09:08.744Z,0.00
2023-04-26T02:10:08.769Z,0.00
2023-04-26T02:11:08.640Z,0.00
2023-04-26T02:12:08.820Z,0.00
2023-04-26T02:13:08.620Z,0.00
2023-04-26T02:14:08.612Z,0.00
2023-04-26T02:15:08.590Z,0.00
2023-04-26T02:16:08.607Z,0.00
2023-04-26T02:17:08.556Z,0.00
2023-04-26T02:18:08.617Z,0.00
2023-04-26T02:19:08.553Z,0.00
2023-04-26T02:20:08.522Z,0.00
2023-04-26T02:21:08.552Z,0.00
2023-04-26T02:22:08.507Z,0.00
2023-04-26T02:23:08.509Z,0.00
2023-04-26T02:24:09.510Z,0.00
2023-04-26T02:25:08.486Z,0.00
2023-04-26T02:26:08.461Z,0.00
2023-04-26T02:27:08.501Z,0.00
2023-04-26T02:28:08.452Z,0.00
2023-04-26T02:29:08.483Z,0.00
2023-04-26T02:30:08.440Z,0.00
2023-04-26T02:31:08.475Z,0.00
2023-04-26T02:32:08.400Z,0.00
2023-04-26T02:33:08.625Z,0.00
2023-04-26T02:34:08.380Z,0.00
2023-04-26T02:35:08.408Z,0.00
2023-04-26T02:36:08.358Z,0.00
2023-04-26T02:37:08.361Z,0.00
2023-04-26T02:38:08.349Z,0.00
2023-04-26T02:39:08.350Z,0.00
2023-04-26T02:40:08.309Z,0.00
2023-04-26T02:41:08.376Z,0.00
2023-04-26T02:42:08.295Z,0.00
2023-04-26T02:43:08.343Z,0.00
2023-04-26T02:44:08.296Z,0.00
2023-04-26T02:45:08.276Z,0.00
2023-04-26T02:46:08.247Z,0.00
2023-04-26T02:47:10.816Z,0.00
2023-04-26T02:48:08.279Z,0.00
2023-04-26T02:49:09.670Z,0.00
2023-04-26T02:50:08.202Z,0.00
2023-04-26T02:51:08.184Z,0.00
2023-04-26T02:52:08.225Z,0.00
2023-04-26T02:53:08.207Z,0.00
2023-04-26T02:54:08.185Z,0.00
2023-04-26T02:55:08.145Z,0.00
2023-04-26T02:56:08.160Z,0.00
2023-04-26T02:57:08.128Z,0.00
2023-04-26T02:58:08.110Z,0.00
2023-04-26T02:59:08.128Z,0.00
2023-04-26T03:00:08.095Z,0.00
2023-04-26T03:01:08.152Z,0.00
2023-04-26T03:02:08.195Z,0.00
2023-04-26T03:03:08.180Z,0.00
2023-04-26T03:04:08.178Z,0.00
2023-04-26T03:05:08.073Z,0.00
2023-04-26T03:06:08.021Z,0.00
2023-04-26T03:07:08.020Z,0.00
2023-04-26T03:08:08.019Z,0.00
2023-04-26T03:09:08.696Z,0.00
2023-04-26T03:10:08.003Z,0.00
2023-04-26T03:11:07.965Z,0.00
2023-04-26T03:12:08.048Z,0.00
2023-04-26T03:13:07.958Z,0.00
2023-04-26T03:14:07.937Z,0.00
2023-04-26T03:15:07.966Z,0.00
2023-04-26T03:16:08.005Z,0.00
2023-04-26T03:17:07.903Z,0.00
2023-04-26T03:18:09.427Z,0.00
2023-04-26T03:19:07.965Z,0.00
2023-04-26T03:20:07.889Z,0.00
2023-04-26T03:21:07.870Z,0.00
2023-04-26T03:22:07.859Z,0.00
2023-04-26T03:23:07.879Z,0.00
2023-04-26T03:24:07.831Z,0.00
2023-04-26T03:25:07.839Z,0.00
2023-04-26T03:26:07.809Z,0.00
2023-04-26T03:27:07.806Z,0.00
2023-04-26T03:28:07.790Z,0.00
2023-04-26T03:29:07.794Z,0.00
2023-04-26T03:30:07.792Z,0.00
2023-04-26T03:31:07.749Z,0.00
2023-04-26T03:32:07.817Z,0.00
2023-04-26T03:33:07.907Z,0.00
2023-04-26T03:34:07.749Z,0.00
2023-04-26T03:35:07.763Z,0.00
2023-04-26T03:36:07.686Z,0.00
2023-04-26T03:37:07.858Z,0.00
2023-04-26T03:38:07.719Z,0.00
2023-04-26T03:39:08.676Z,0.00
2023-04-26T03:40:08.612Z,0.00
2023-04-26T03:41:07.681Z,0.00
2023-04-26T03:42:07.662Z,0.00
2023-04-26T03:43:07.645Z,0.00
2023-04-26T03:44:07.730Z,0.00
2023-04-26T03:45:07.612Z,0.00
2023-04-26T03:46:07.686Z,0.00
2023-04-26T03:47:07.698Z,0.00
2023-04-26T03:48:07.752Z,0.00
2023-04-26T03:49:07.621Z,0.00
2023-04-26T03:50:07.952Z,4.00
2023-04-26T03:51:07.860Z,4.00
2023-04-26T03:52:07.527Z,0.00
2023-04-26T03:53:07.519Z,4.00
2023-04-26T03:54:07.509Z,4.00
2023-04-26T03:55:07.507Z,4.00
2023-04-26T03:56:07.532Z,4.00
2023-04-26T03:57:07.459Z,8.00
2023-04-26T03:58:07.460Z,4.00
2023-04-26T03:59:07.476Z,8.00
2023-04-26T04:00:07.476Z,8.00
2023-04-26T04:01:07.445Z,8.00
2023-04-26T04:02:07.478Z,8.00
2023-04-26T04:03:07.741Z,12.00
2023-04-26T04:04:07.785Z,16.00
2023-04-26T04:05:07.430Z,20.00
2023-04-26T04:06:07.378Z,20.00
2023-04-26T04:07:07.457Z,24.00
2023-04-26T04:08:07.399Z,24.00
2023-04-26T04:09:08.304Z,28.00
2023-04-26T04:10:07.408Z,32.00
2023-04-26T04:11:07.321Z,36.00
2023-04-26T04:12:07.317Z,40.00
2023-04-26T04:13:07.306Z,44.00
2023-04-26T04:14:07.307Z,48.00
2023-04-26T04:15:07.290Z,56.00
2023-04-26T04:16:07.310Z,60.00
2023-04-26T04:17:07.260Z,64.00
2023-04-26T04:18:07.365Z,72.00
2023-04-26T04:19:08.535Z,76.00
2023-04-26T04:20:07.234Z,84.00
2023-04-26T04:21:07.223Z,92.00
2023-04-26T04:22:07.221Z,104.00
2023-04-26T04:23:08.030Z,112.00
2023-04-26T04:24:07.199Z,124.00
2023-04-26T04:25:07.175Z,144.00
2023-04-26T04:26:07.312Z,156.00
2023-04-26T04:27:07.162Z,168.00
2023-04-26T04:28:07.159Z,180.00
2023-04-26T04:29:07.526Z,188.00
2023-04-26T04:30:07.101Z,196.00
2023-04-26T04:31:07.175Z,204.00
2023-04-26T04:32:08.552Z,204.00
2023-04-26T04:33:07.165Z,208.00
2023-04-26T04:34:07.068Z,212.00
2023-04-26T04:35:07.074Z,212.00
2023-04-26T04:36:07.095Z,220.00
2023-04-26T04:37:07.035Z,224.00
2023-04-26T04:38:07.047Z,236.00
2023-04-26T04:39:07.041Z,244.00
2023-04-26T04:40:07.869Z,256.00
2023-04-26T04:41:07.037Z,260.00
2023-04-26T04:42:07.032Z,272.00
2023-04-26T04:43:07.027Z,280.00
2023-04-26T04:44:06.952Z,288.00
2023-04-26T04:45:07.010Z,296.00
2023-04-26T04:46:06.986Z,308.00
2023-04-26T04:47:06.970Z,320.00
2023-04-26T04:48:06.956Z,328.00
2023-04-26T04:49:08.369Z,336.00
2023-04-26T04:50:06.885Z,344.00
2023-04-26T04:51:06.901Z,356.00
2023-04-26T04:52:06.922Z,364.00
2023-04-26T04:53:06.912Z,372.00
2023-04-26T04:54:06.860Z,376.00
2023-04-26T04:55:06.849Z,380.00
2023-04-26T04:56:06.880Z,388.00
2023-04-26T04:57:06.817Z,392.00
2023-04-26T04:58:07.825Z,400.00
2023-04-26T04:59:06.928Z,408.00
2023-04-26T05:00:06.820Z,416.00
2023-04-26T05:01:06.767Z,424.00
2023-04-26T05:02:06.799Z,432.00
2023-04-26T05:03:07.741Z,440.00
2023-04-26T05:04:07.114Z,452.00
2023-04-26T05:05:06.923Z,468.00
2023-04-26T05:06:06.742Z,476.00
2023-04-26T05:07:06.908Z,476.00
2023-04-26T05:08:06.710Z,476.00
2023-04-26T05:09:07.449Z,484.00
2023-04-26T05:10:06.716Z,492.00
2023-04-26T05:11:06.689Z,504.00
2023-04-26T05:12:06.661Z,516.00
2023-04-26T05:13:06.645Z,516.00
2023-04-26T05:14:06.660Z,512.00
2023-04-26T05:15:06.624Z,512.00
2023-04-26T05:16:06.647Z,520.00
2023-04-26T05:17:06.625Z,532.00
2023-04-26T05:18:06.638Z,544.00
2023-04-26T05:19:09.567Z,552.00
2023-04-26T05:20:06.569Z,560.00
2023-04-26T05:21:06.553Z,564.00
2023-04-26T05:22:06.582Z,568.00
2023-04-26T05:23:06.534Z,572.00
2023-04-26T05:24:06.538Z,584.00
2023-04-26T05:25:06.529Z,600.00
2023-04-26T05:26:06.523Z,612.00
2023-04-26T05:27:06.522Z,604.00
2023-04-26T05:28:06.520Z,608.00
2023-04-26T05:29:06.475Z,616.00
2023-04-26T05:30:06.494Z,636.00
2023-04-26T05:31:06.458Z,644.00
2023-04-26T05:32:06.473Z,660.00
2023-04-26T05:33:06.490Z,660.00
2023-04-26T05:34:06.442Z,672.00
2023-04-26T05:35:06.416Z,692.00
2023-04-26T05:36:06.402Z,704.00
2023-04-26T05:37:06.532Z,712.00
2023-04-26T05:38:06.411Z,724.00
2023-04-26T05:39:06.393Z,728.00
2023-04-26T05:40:06.381Z,736.00
2023-04-26T05:41:06.373Z,748.00
2023-04-26T05:42:06.331Z,764.00
2023-04-26T05:43:06.356Z,776.00
2023-04-26T05:44:06.325Z,792.00
2023-04-26T05:45:06.332Z,820.00
2023-04-26T05:46:06.356Z,832.00
2023-04-26T05:47:06.286Z,844.00
2023-04-26T05:48:06.323Z,860.00
2023-04-26T05:49:06.256Z,868.00
2023-04-26T05:50:06.283Z,888.00
2023-04-26T05:51:06.283Z,896.00
2023-04-26T05:52:06.222Z,920.00
2023-04-26T05:53:06.235Z,964.00
2023-04-26T05:54:06.215Z,1008.00
2023-04-26T05:55:07.721Z,1040.00
2023-04-26T05:56:06.212Z,1044.00
2023-04-26T05:57:06.305Z,1020.00
2023-04-26T05:58:06.161Z,996.00
2023-04-26T05:59:06.161Z,968.00
2023-04-26T06:00:06.195Z,948.00
2023-04-26T06:01:06.148Z,944.00
2023-04-26T06:02:06.151Z,932.00
2023-04-26T06:03:07.342Z,932.00
2023-04-26T06:04:06.702Z,932.00
2023-04-26T06:05:06.528Z,936.00
2023-04-26T06:06:06.103Z,972.00
2023-04-26T06:07:06.083Z,1008.00
2023-04-26T06:08:07.533Z,1044.00
2023-04-26T06:09:06.109Z,1080.00
2023-04-26T06:10:06.031Z,1108.00
2023-04-26T06:11:06.079Z,1156.00
2023-04-26T06:12:06.975Z,1180.00
2023-04-26T06:13:07.439Z,1208.00
2023-04-26T06:14:14.268Z,1236.00
2023-04-26T06:15:07.010Z,1276.00
2023-04-26T06:16:07.432Z,1292.00
2023-04-26T06:17:06.379Z,1296.00
2023-04-26T06:18:07.462Z,1332.00
2023-04-26T06:19:07.389Z,1368.00
2023-04-26T06:20:06.801Z,1424.00
2023-04-26T06:21:07.413Z,1464.00
2023-04-26T06:22:07.369Z,1488.00
2023-04-26T06:23:07.879Z,1492.00
2023-04-26T06:24:05.939Z,1492.00
2023-04-26T06:25:07.323Z,1512.00
2023-04-26T06:26:05.895Z,1556.00
2023-04-26T06:27:07.331Z,1632.00
2023-04-26T06:28:05.830Z,1656.00
2023-04-26T06:29:05.974Z,1640.00
2023-04-26T06:30:05.844Z,1616.00
2023-04-26T06:31:06.022Z,1564.00
2023-04-26T06:32:06.302Z,1528.00
2023-04-26T06:33:06.019Z,1588.00
2023-04-26T06:34:08.422Z,1628.00
2023-04-26T06:35:05.762Z,1604.00
2023-04-26T06:36:06.586Z,1624.00
2023-04-26T06:37:05.764Z,1728.00
2023-04-26T06:38:05.875Z,1712.00
2023-04-26T06:39:06.380Z,1668.00
2023-04-26T06:40:05.737Z,1588.00
2023-04-26T06:41:05.705Z,1504.00
2023-04-26T06:42:05.756Z,1512.00
2023-04-26T06:43:05.737Z,1500.00
2023-04-26T06:44:05.705Z,1424.00
2023-04-26T06:45:05.666Z,1348.00
2023-04-26T06:46:05.655Z,1288.00
2023-04-26T06:47:05.707Z,1260.00
2023-04-26T06:48:05.670Z,1268.00
2023-04-26T06:49:07.070Z,1240.00
2023-04-26T06:50:05.926Z,1232.00
2023-04-26T06:51:05.570Z,1272.00
2023-04-26T06:52:05.568Z,1300.00
2023-04-26T06:53:05.608Z,1352.00
2023-04-26T06:54:05.575Z,1448.00
2023-04-26T06:55:05.590Z,1464.00
2023-04-26T06:56:05.530Z,1476.00
2023-04-26T06:57:05.772Z,1576.00
2023-04-26T06:58:05.546Z,1664.00
2023-04-26T06:59:06.357Z,1728.00
2023-04-26T07:00:06.947Z,1788.00
2023-04-26T07:01:06.936Z,1852.00
2023-04-26T07:02:07.039Z,1900.00
2023-04-26T07:03:05.699Z,1928.00
2023-04-26T07:04:05.593Z,1948.00
2023-04-26T07:05:05.571Z,1976.00
2023-04-26T07:06:05.472Z,1988.00
2023-04-26T07:07:05.416Z,1928.00
2023-04-26T07:08:05.381Z,1836.00
2023-04-26T07:09:05.405Z,1764.00
2023-04-26T07:10:05.422Z,1712.00
2023-04-26T07:11:05.378Z,1696.00
2023-04-26T07:12:05.503Z,1756.00
2023-04-26T07:13:06.799Z,1752.00
2023-04-26T07:14:05.449Z,1804.00
2023-04-26T07:15:05.323Z,1800.00
2023-04-26T07:16:05.359Z,1860.00
2023-04-26T07:17:06.246Z,1944.00
2023-04-26T07:18:05.333Z,2068.00
2023-04-26T07:19:06.114Z,2276.00
2023-04-26T07:20:05.300Z,2432.00
2023-04-26T07:21:06.706Z,2548.00
2023-04-26T07:22:05.226Z,2724.00
2023-04-26T07:23:05.274Z,2844.00
2023-04-26T07:24:05.203Z,2928.00
2023-04-26T07:25:05.447Z,2980.00
2023-04-26T07:26:05.468Z,2960.00
2023-04-26T07:27:05.412Z,2968.00
2023-04-26T07:28:05.169Z,2920.00
2023-04-26T07:29:06.613Z,2972.00
2023-04-26T07:30:05.143Z,3048.00
2023-04-26T07:31:08.775Z,3132.00
2023-04-26T07:32:05.162Z,3148.00
2023-04-26T07:33:06.722Z,3228.00
2023-04-26T07:34:05.153Z,3288.00
2023-04-26T07:35:05.484Z,3292.00
2023-04-26T07:36:05.096Z,3160.00
2023-04-26T07:37:05.071Z,3144.00
2023-04-26T07:38:06.327Z,3088.00
2023-04-26T07:39:05.045Z,3008.00
2023-04-26T07:40:05.041Z,3016.00
2023-04-26T07:41:05.052Z,3056.00
2023-04-26T07:42:05.044Z,3096.00
2023-04-26T07:43:05.039Z,3056.00
2023-04-26T07:44:05.000Z,2992.00
2023-04-26T07:45:04.986Z,2972.00
2023-04-26T07:46:05.381Z,3020.00
2023-04-26T07:47:04.968Z,3176.00
2023-04-26T07:48:05.040Z,3424.00
2023-04-26T07:49:05.756Z,3428.00
2023-04-26T07:50:04.967Z,3188.00
2023-04-26T07:51:04.936Z,2992.00
2023-04-26T07:52:04.902Z,3236.00
2023-04-26T07:53:04.897Z,3416.00
2023-04-26T07:54:05.843Z,3592.00
2023-04-26T07:55:05.764Z,3848.00
2023-04-26T07:56:06.317Z,4136.00
2023-04-26T07:57:04.975Z,4296.00
2023-04-26T07:58:05.794Z,4184.00
2023-04-26T07:59:04.840Z,4024.00
2023-04-26T08:00:04.838Z,3960.00
2023-04-26T08:01:04.900Z,3804.00
2023-04-26T08:02:04.854Z,3576.00
2023-04-26T08:03:04.914Z,3364.00
2023-04-26T08:04:05.011Z,3232.00
2023-04-26T08:05:04.907Z,3152.00
2023-04-26T08:06:05.748Z,3048.00
2023-04-26T08:07:04.809Z,2848.00
2023-04-26T08:08:04.708Z,2764.00
2023-04-26T08:09:04.877Z,2756.00
2023-04-26T08:10:04.689Z,2836.00
2023-04-26T08:11:04.911Z,2984.00
2023-04-26T08:12:04.926Z,3212.00
2023-04-26T08:13:05.449Z,3272.00
2023-04-26T08:14:06.116Z,3252.00
2023-04-26T08:15:04.654Z,3436.00
2023-04-26T08:16:04.628Z,3732.00
2023-04-26T08:17:04.719Z,3856.00
2023-04-26T08:18:04.711Z,3808.00
2023-04-26T08:19:04.634Z,3776.00
2023-04-26T08:20:04.615Z,4036.00
2023-04-26T08:21:04.577Z,4212.00
2023-04-26T08:22:04.564Z,4204.00
2023-04-26T08:23:04.572Z,3756.00
2023-04-26T08:24:05.491Z,3516.00
2023-04-26T08:25:04.598Z,3460.00
2023-04-26T08:26:04.572Z,3512.00
2023-04-26T08:27:04.547Z,3440.00
2023-04-26T08:28:06.000Z,3308.00
2023-04-26T08:29:04.524Z,3300.00
2023-04-26T08:30:04.561Z,3396.00
2023-04-26T08:31:04.526Z,3368.00
2023-04-26T08:32:04.461Z,3232.00
2023-04-26T08:33:04.517Z,3084.00
2023-04-26T08:34:04.475Z,2832.00
2023-04-26T08:35:05.384Z,2632.00
2023-04-26T08:36:04.483Z,2560.00
2023-04-26T08:37:04.401Z,2588.00
2023-04-26T08:38:04.460Z,2848.00
2023-04-26T08:39:04.515Z,3204.00
2023-04-26T08:40:04.366Z,3492.00
2023-04-26T08:41:04.352Z,3664.00
2023-04-26T08:42:04.337Z,3748.00
2023-04-26T08:43:04.491Z,3844.00
2023-04-26T08:44:04.354Z,3920.00
2023-04-26T08:45:04.329Z,4088.00
2023-04-26T08:46:04.550Z,4320.00
2023-04-26T08:47:04.308Z,4700.00
2023-04-26T08:48:04.871Z,4916.00
2023-04-26T08:49:04.592Z,5032.00
2023-04-26T08:50:04.276Z,4952.00
2023-04-26T08:51:05.737Z,4716.00
2023-04-26T08:52:04.223Z,4432.00
2023-04-26T08:53:04.251Z,4280.00
2023-04-26T08:54:04.937Z,4216.00
2023-04-26T08:55:05.218Z,4072.00
2023-04-26T08:56:04.368Z,3992.00
2023-04-26T08:57:05.128Z,4132.00
2023-04-26T08:58:04.195Z,4536.00
2023-04-26T08:59:04.155Z,4828.00
2023-04-26T09:00:04.155Z,4912.00
2023-04-26T09:01:04.158Z,4880.00
2023-04-26T09:02:04.186Z,4828.00
2023-04-26T09:03:04.228Z,4720.00
2023-04-26T09:04:04.331Z,4516.00
2023-04-26T09:05:04.306Z,4400.00
2023-04-26T09:06:04.503Z,4192.00
2023-04-26T09:07:04.097Z,3888.00
2023-04-26T09:08:04.080Z,3768.00
2023-04-26T09:09:04.662Z,3684.00
2023-04-26T09:10:04.072Z,3608.00
2023-04-26T09:11:04.041Z,3600.00
2023-04-26T09:12:04.019Z,3500.00
2023-04-26T09:13:04.096Z,3504.00
2023-04-26T09:14:03.996Z,3596.00
2023-04-26T09:15:04.970Z,4176.00
2023-04-26T09:16:05.108Z,4744.00
2023-04-26T09:17:03.974Z,5000.00
2023-04-26T09:18:04.034Z,5012.00
2023-04-26T09:19:03.958Z,4728.00
2023-04-26T09:20:05.317Z,4260.00
2023-04-26T09:21:03.939Z,3792.00
2023-04-26T09:22:03.906Z,3528.00
2023-04-26T09:23:03.893Z,2944.00
2023-04-26T09:24:03.888Z,2576.00
2023-04-26T09:25:03.930Z,2460.00
2023-04-26T09:26:03.866Z,2412.00
2023-04-26T09:27:03.887Z,2448.00
2023-04-26T09:28:05.804Z,2688.00
2023-04-26T09:29:04.006Z,2920.00
2023-04-26T09:30:03.852Z,2900.00
2023-04-26T09:31:04.842Z,3192.00
2023-04-26T09:32:03.797Z,3476.00
2023-04-26T09:33:03.854Z,3780.00
2023-04-26T09:34:03.792Z,4048.00
2023-04-26T09:35:04.728Z,4944.00
2023-04-26T09:36:03.768Z,5960.00
2023-04-26T09:37:03.750Z,6432.00
2023-04-26T09:38:10.472Z,6628.00
2023-04-26T09:39:04.721Z,6652.00
2023-04-26T09:40:03.710Z,6660.00
2023-04-26T09:41:03.726Z,6440.00
2023-04-26T09:42:03.692Z,5804.00
2023-04-26T09:43:03.728Z,5056.00
2023-04-26T09:44:03.656Z,4272.00
2023-04-26T09:45:03.667Z,3528.00
2023-04-26T09:46:03.642Z,2996.00
2023-04-26T09:47:03.763Z,2548.00
2023-04-26T09:48:03.625Z,2256.00
2023-04-26T09:49:03.675Z,2396.00
2023-04-26T09:50:03.585Z,2848.00
2023-04-26T09:51:03.612Z,3304.00
2023-04-26T09:52:03.567Z,3748.00
2023-04-26T09:53:03.561Z,4020.00
2023-04-26T09:54:03.572Z,4260.00
2023-04-26T09:55:03.567Z,4392.00
2023-04-26T09:56:03.745Z,4288.00
2023-04-26T09:57:03.539Z,4268.00
2023-04-26T09:58:03.880Z,4228.00
2023-04-26T09:59:03.572Z,4176.00
2023-04-26T10:00:03.470Z,4308.00
2023-04-26T10:01:03.575Z,4860.00
2023-04-26T10:02:04.457Z,5588.00
2023-04-26T10:03:04.974Z,5992.00
2023-04-26T10:04:03.464Z,5996.00
2023-04-26T10:05:03.493Z,5356.00
2023-04-26T10:06:03.416Z,4800.00
2023-04-26T10:07:04.289Z,4480.00
2023-04-26T10:08:03.404Z,4520.00
2023-04-26T10:09:03.935Z,4576.00
2023-04-26T10:10:03.363Z,4384.00
2023-04-26T10:11:03.379Z,4168.00
2023-04-26T10:12:03.436Z,4124.00
2023-04-26T10:13:03.345Z,4264.00
2023-04-26T10:14:03.334Z,4632.00
2023-04-26T10:15:04.268Z,5080.00
2023-04-26T10:16:03.400Z,5316.00
2023-04-26T10:17:03.401Z,5192.00
2023-04-26T10:18:03.329Z,4876.00
2023-04-26T10:19:04.113Z,4940.00
2023-04-26T10:20:03.270Z,5444.00
2023-04-26T10:21:03.249Z,5860.00
2023-04-26T10:22:03.233Z,5888.00
2023-04-26T10:23:03.231Z,5680.00
2023-04-26T10:24:04.700Z,5404.00
2023-04-26T10:25:03.232Z,5428.00
2023-04-26T10:26:03.235Z,5508.00
2023-04-26T10:27:04.148Z,5156.00
2023-04-26T10:28:04.656Z,4696.00
2023-04-26T10:29:03.612Z,4252.00
2023-04-26T10:30:03.947Z,4188.00
2023-04-26T10:31:03.178Z,4676.00
2023-04-26T10:32:03.224Z,5408.00
2023-04-26T10:33:03.695Z,6092.00
2023-04-26T10:34:03.111Z,6748.00
2023-04-26T10:35:05.055Z,7108.00
2023-04-26T10:36:03.083Z,6904.00
2023-04-26T10:37:03.157Z,6712.00
2023-04-26T10:38:04.558Z,6660.00
2023-04-26T10:39:03.092Z,6468.00
2023-04-26T10:40:03.039Z,6236.00
2023-04-26T10:41:03.030Z,6224.00
2023-04-26T10:42:03.027Z,6204.00
2023-04-26T10:43:04.121Z,5944.00
2023-04-26T10:44:03.043Z,5684.00
2023-04-26T10:45:03.007Z,5332.00
2023-04-26T10:46:03.007Z,5016.00
2023-04-26T10:47:03.051Z,4672.00
2023-04-26T10:48:02.990Z,4088.00
2023-04-26T10:49:02.954Z,3892.00
2023-04-26T10:50:05.086Z,3964.00
2023-04-26T10:51:02.939Z,4012.00
2023-04-26T10:52:02.911Z,3816.00
2023-04-26T10:53:02.929Z,3704.00
2023-04-26T10:54:02.917Z,3640.00
2023-04-26T10:55:02.880Z,3692.00
2023-04-26T10:56:02.877Z,3772.00
2023-04-26T10:57:02.863Z,3888.00
2023-04-26T10:58:03.085Z,3956.00
2023-04-26T10:59:04.915Z,4096.00
2023-04-26T11:00:03.851Z,4404.00
2023-04-26T11:01:02.912Z,4856.00
2023-04-26T11:02:02.851Z,5188.00
2023-04-26T11:03:02.886Z,5472.00
2023-04-26T11:04:02.837Z,5152.00
2023-04-26T11:05:02.814Z,4732.00
2023-04-26T11:06:02.789Z,4504.00
2023-04-26T11:07:02.740Z,4152.00
2023-04-26T11:08:02.727Z,4840.00
2023-04-26T11:09:02.896Z,5468.00
2023-04-26T11:10:02.697Z,5608.00
2023-04-26T11:11:02.713Z,5476.00
2023-04-26T11:12:02.693Z,5212.00
2023-04-26T11:13:02.678Z,4736.00
2023-04-26T11:14:03.483Z,4472.00
2023-04-26T11:15:03.624Z,4360.00
2023-04-26T11:16:02.733Z,4532.00
2023-04-26T11:17:02.674Z,4380.00
2023-04-26T11:18:03.037Z,4364.00
2023-04-26T11:19:02.602Z,4400.00
2023-04-26T11:20:02.622Z,4616.00
2023-04-26T11:21:02.599Z,5300.00
2023-04-26T11:22:02.598Z,5692.00
2023-04-26T11:23:02.718Z,6024.00
2023-04-26T11:24:02.557Z,5740.00
2023-04-26T11:25:02.577Z,5408.00
2023-04-26T11:26:02.533Z,5544.00
2023-04-26T11:27:02.530Z,5948.00
2023-04-26T11:28:02.517Z,6268.00
2023-04-26T11:29:02.584Z,5932.00
2023-04-26T11:30:02.501Z,5068.00
2023-04-26T11:31:02.554Z,4340.00
2023-04-26T11:32:02.499Z,3876.00
2023-04-26T11:33:02.503Z,3788.00
2023-04-26T11:34:02.463Z,3872.00
2023-04-26T11:35:03.405Z,4244.00
2023-04-26T11:36:02.485Z,4704.00
2023-04-26T11:37:02.416Z,5188.00
2023-04-26T11:38:02.401Z,5304.00
2023-04-26T11:39:02.508Z,4644.00
2023-04-26T11:40:02.396Z,4184.00
2023-04-26T11:41:02.401Z,3844.00
2023-04-26T11:42:02.362Z,3584.00
2023-04-26T11:43:02.409Z,3448.00
2023-04-26T11:44:02.415Z,3556.00
2023-04-26T11:45:02.327Z,3880.00
2023-04-26T11:46:02.300Z,4052.00
2023-04-26T11:47:03.400Z,4196.00
2023-04-26T11:48:02.342Z,4320.00
2023-04-26T11:49:02.312Z,4640.00
2023-04-26T11:50:02.280Z,4976.00
2023-04-26T11:51:02.250Z,5792.00
2023-04-26T11:52:02.248Z,5932.00
2023-04-26T11:53:02.294Z,5540.00
2023-04-26T11:54:02.246Z,5204.00
2023-04-26T11:55:03.326Z,4852.00
2023-04-26T11:56:02.215Z,4416.00
2023-04-26T11:57:02.184Z,4160.00
2023-04-26T11:58:02.224Z,4308.00
2023-04-26T11:59:04.063Z,4584.00
2023-04-26T12:00:02.152Z,4900.00
2023-04-26T12:01:02.172Z,5160.00
2023-04-26T12:02:02.175Z,5368.00
2023-04-26T12:03:03.264Z,6096.00
2023-04-26T12:04:02.231Z,6744.00
2023-04-26T12:05:02.397Z,7616.00
2023-04-26T12:06:02.087Z,8952.00
2023-04-26T12:07:02.071Z,9496.00
2023-04-26T12:08:02.072Z,8792.00
2023-04-26T12:09:02.090Z,7916.00
2023-04-26T12:10:02.066Z,7020.00
2023-04-26T12:11:02.181Z,6276.00
2023-04-26T12:12:02.067Z,5920.00
2023-04-26T12:13:02.013Z,5700.00
2023-04-26T12:14:02.009Z,5464.00
2023-04-26T12:15:03.110Z,5456.00
2023-04-26T12:16:03.837Z,5220.00
2023-04-26T12:17:03.071Z,4916.00
2023-04-26T12:18:02.027Z,4696.00
2023-04-26T12:19:01.937Z,4340.00
2023-04-26T12:20:01.946Z,4308.00
2023-04-26T12:21:02.892Z,4264.00
2023-04-26T12:22:01.935Z,4296.00
2023-04-26T12:23:01.900Z,4844.00
2023-04-26T12:24:01.898Z,4980.00
2023-04-26T12:25:01.910Z,5008.00
2023-04-26T12:26:02.881Z,4644.00
2023-04-26T12:27:02.701Z,4380.00
2023-04-26T12:28:01.859Z,4448.00
2023-04-26T12:29:01.836Z,4528.00
2023-04-26T12:30:01.824Z,4728.00
2023-04-26T12:31:01.871Z,4956.00
2023-04-26T12:32:01.880Z,5080.00